Nearby METAR Reports

 

KSJC - San Jose, California, USA
Distance from station: NO 14km
aktuell: 16/11/2018 09:53
Haze, geschlossene Wolkendecke
Haze, geschlossene Wolkendecke
 Wind von calm
Wind: Windstill
Temperatur: 8°C
Taupunkt: -1°C
Luftfeuchte: 53%
Luftdruck: 1017.9 hPa
Zusammenfassung: Haze
Clouds: geschlossene Wolkendecke
Visibility: 2 km
Cloud details: geschlossene Wolkendecke 457 m
2018/11/16 08:53 KSJC 160853Z AUTO 00000KT 2 1/2SM HZ OVC015 08/M01 A3006 RMK AO2 SLP177 T00781011 58003
KNUQ - Moffett Nas/Mtn, California, USA
Distance from station: N 14km
aktuell: 16/11/2018 09:56
Smoke, klar
Smoke, klar
 Wind von calm
Wind: Windstill
Temperatur: 7°C
Taupunkt: 1°C
Luftfeuchte: 66%
Luftdruck: 1017.9 hPa
Zusammenfassung: Smoke
Clouds: klar
Visibility: 2 km
2018/11/16 08:56 KNUQ 160856Z 00000KT 2 1/2SM FU CLR 07/01 A3006 RMK AO2 SLP182 T00720006 55003
 
KPAO - Palo Alto, California, USA
Distance from station: NNW 23km
aktuell: 16/11/2018 05:47
NOT Current
Smoke, klar
Smoke, klar
 Wind von calm
Wind: Windstill
Temperatur: 8°C
Taupunkt: 4°C
Luftfeuchte: 76%
Luftdruck: 1018.6 hPa
Zusammenfassung: Smoke
Clouds: klar
Visibility: 2 km
2018/11/16 04:47 KPAO 160447Z 00000KT 1 1/2SM FU SKC 08/04 A3008
KRHV - San Jose/Reid, California, USA
Distance from station: ONO 19km
aktuell: 16/11/2018 06:47
NOT Current
Smoke, stark bewölkt
Smoke, stark bewölkt
 Wind von calm
Wind: Windstill
Temperatur: 9°C
Taupunkt: 1°C
Luftfeuchte: 58%
Luftdruck: 1017.6 hPa
Zusammenfassung: Smoke
Clouds: stark bewölkt
Visibility: 2 km
Cloud details: stark bewölkt 610 m
2018/11/16 05:47 KRHV 160547Z 00000KT 1 1/2SM FU BKN020 09/01 A3005 RMK LAST
 
KOAK - Oakland, California, USA
Distance from station: NNW 50km
aktuell: 16/11/2018 09:53
Haze, geschlossene Wolkendecke
Haze, geschlossene Wolkendecke
 Wind von calm
Wind: Windstill
Temperatur: 8°C
Taupunkt: 2°C
Luftfeuchte: 66%
Luftdruck: 1017.9 hPa
Zusammenfassung: Haze
Clouds: geschlossene Wolkendecke
Visibility: 3 km
Cloud details: geschlossene Wolkendecke 366 m
2018/11/16 08:53 KOAK 160853Z 00000KT 2SM HZ OVC012 08/02 A3006 RMK AO2 SLP179 FU OVC012 T00780022 58004
KSQL - San Carlos Airpo, California, USA
Distance from station: NW 34km
aktuell: 16/11/2018 10:15
Haze, geschlossene Wolkendecke
Haze, geschlossene Wolkendecke
 Wind von calm
Wind: Windstill
Temperatur: 8°C
Taupunkt: 4°C
Luftfeuchte: 76%
Luftdruck: 1017.6 hPa
Zusammenfassung: Haze
Clouds: geschlossene Wolkendecke
Visibility: 3 km
Cloud details: geschlossene Wolkendecke 427 m
2018/11/16 09:15 KSQL 160915Z AUTO 00000KT 2SM HZ OVC014 08/04 A3005 RMK AO2
 
KSFO - San Francisco, California, USA
Distance from station: NW 49km
aktuell: 16/11/2018 09:56
Smoke, stark bewölkt
Smoke, stark bewölkt
 Wind von N
Wind: N 6 km/h
Temperatur: 12°C
Taupunkt: 5°C
Luftfeuchte: 63%
Luftdruck: 1017.6 hPa
Zusammenfassung: Smoke
Clouds: stark bewölkt
Visibility: 2 km
Cloud details: Few Clouds 91 m
stark bewölkt 396 m
2018/11/16 08:56 KSFO 160856Z 01003KT 1 1/2SM FU FEW003 BKN013 12/05 A3005 RMK AO2 SLP176 T01220050 58003
KE16 - San Martin, California, USA
Distance from station: OSO 43km
aktuell: 16/11/2018 10:00

 
2018/11/16 09:00 KE16 160900Z AUTO RMK AO2
 
KWVI - Watsonville, California, USA
Distance from station: SSO 44km
aktuell: 16/11/2018 09:53
Haze, klar
Haze, klar
 Wind von NW
Wind: NW 7 km/h
Temperatur: 7°C
Wind Chill: 6°C
Taupunkt: -1°C
Luftfeuchte: 57%
Luftdruck: 1017.3 hPa
Zusammenfassung: Haze
Clouds: klar
Visibility: 10 km
2018/11/16 08:53 KWVI 160853Z AUTO 31004KT 6SM HZ CLR 07/M01 A3004 RMK AO2 SLP171 T00721011 58005
KHAF - Half Moon Bay, California, USA
Distance from station: WNW 50km
aktuell: 16/11/2018 10:15
Haze, geschlossene Wolkendecke
Haze, geschlossene Wolkendecke
 Wind von calm
Wind: Windstill
Temperatur: 4°C
Taupunkt: -1°C
Luftfeuchte: 70%
Luftdruck: 1016.9 hPa
Zusammenfassung: Haze
Clouds: geschlossene Wolkendecke
Visibility: 5 km
Cloud details: geschlossene Wolkendecke 91 m
2018/11/16 09:15 KHAF 160915Z AUTO 00000KT 3SM HZ OVC003 04/M01 A3003 RMK AO2
 
KHWD - Hayward, California, USA
Distance from station: N 44km
aktuell: 16/11/2018 09:54
Haze, Smoke, klar
Haze, Smoke, klar
 Wind von O
Wind: O 6 km/h
Temperatur: 9°C
Taupunkt: -2°C
Luftfeuchte: 46%
Luftdruck: 1017.6 hPa
Zusammenfassung: Haze, Smoke
Clouds: klar
Visibility: 3 km
2018/11/16 08:54 KHWD 160854Z AUTO 08003KT 2SM HZ FU CLR 09/M02 A3005 RMK AO2 SLP186 T00891022 58004
KLVK - Livermore, California, USA
Distance from station: NNO 51km
aktuell: 16/11/2018 09:53
Haze, Smoke, klar
Haze, Smoke, klar
 Wind von O
Wind: O 7 km/h
Temperatur: 3°C
Wind Chill: 1°C
Taupunkt: -5°C
Luftfeuchte: 56%
Luftdruck: 1017.9 hPa
Zusammenfassung: Haze, Smoke
Clouds: klar
Visibility: 2 km
2018/11/16 08:53 KLVK 160853Z AUTO 08004KT 2 1/2SM HZ FU CLR 03/M05 A3006 RMK AO2 SLP181 T00331050 58002